Time;durP1;ratioP1;P1;durP2;ratioP2;P2;SDS_P1;SDS_P2;PMS_P1;PMS_P2;Temp;Humidity;BMP_temperature;BMP_pressure;BME280_temperature;BME280_humidity;BME280_pressure;Samples;Min_cycle;Max_cycle;Signal;HPM_P1;HPM_P2
2022/08/21 00:02:02;;;;;;;22.80;15.37;;;24.10;99.90;;;;;;6130459;23;20476;-93
2022/08/21 00:04:28;;;;;;;20.80;14.13;;;24.10;99.90;;;;;;6130644;23;20197;-94
2022/08/21 00:06:54;;;;;;;24.13;13.73;;;24.10;99.90;;;;;;6131155;23;20949;-94
2022/08/21 00:09:20;;;;;;;22.37;13.60;;;24.10;99.90;;;;;;6131211;23;20439;-94
2022/08/21 00:11:47;;;;;;;22.50;14.50;;;24.10;99.90;;;;;;6133404;23;20517;-93
2022/08/21 00:14:14;;;;;;;20.60;14.13;;;24.10;99.90;;;;;;6133021;23;20557;-94
2022/08/21 00:16:39;;;;;;;24.97;15.07;;;24.10;99.90;;;;;;6134465;23;20384;-94
2022/08/21 00:19:06;;;;;;;20.60;14.20;;;24.10;99.90;;;;;;6134105;23;20501;-94
2022/08/21 00:21:34;;;;;;;25.53;14.77;;;24.10;99.90;;;;;;6134693;23;20646;-94
2022/08/21 00:24:00;;;;;;;20.97;14.30;;;24.10;99.90;;;;;;6133658;23;20401;-95
2022/08/21 00:26:26;;;;;;;21.23;14.07;;;24.00;99.90;;;;;;6128524;23;20490;-93
2022/08/21 00:28:52;;;;;;;26.37;15.40;;;24.00;99.90;;;;;;6127551;23;20408;-93
2022/08/21 00:31:18;;;;;;;22.10;15.00;;;24.00;99.90;;;;;;6127795;23;20189;-93
2022/08/21 00:33:44;;;;;;;24.43;16.43;;;24.00;99.90;;;;;;6128653;23;20397;-94
2022/08/21 00:36:10;;;;;;;30.80;15.50;;;24.00;99.90;;;;;;6129795;23;20182;-94
2022/08/21 00:38:37;;;;;;;22.20;14.57;;;24.00;99.90;;;;;;6129253;23;20815;-93
2022/08/21 00:41:05;;;;;;;24.20;15.03;;;23.90;99.90;;;;;;6129358;23;20817;-94
2022/08/21 00:43:33;;;;;;;24.50;16.20;;;23.90;99.90;;;;;;6129637;23;20416;-94
2022/08/21 00:46:00;;;;;;;23.33;14.33;;;23.90;99.90;;;;;;6129995;23;20497;-94
2022/08/21 00:48:27;;;;;;;25.80;16.07;;;23.90;99.90;;;;;;6128913;23;20474;-94
2022/08/21 00:50:57;;;;;;;26.97;15.73;;;23.90;99.90;;;;;;6143027;23;20728;-94
2022/08/21 00:53:23;;;;;;;25.33;17.00;;;23.80;99.90;;;;;;6129794;23;20379;-93
2022/08/21 00:55:50;;;;;;;25.70;16.57;;;23.90;99.90;;;;;;6127643;23;20402;-94
2022/08/21 00:58:16;;;;;;;27.63;15.57;;;23.90;99.90;;;;;;6127186;23;20391;-95
2022/08/21 01:00:45;;;;;;;29.03;17.60;;;23.90;99.90;;;;;;6128504;23;20442;-94
2022/08/21 01:03:15;;;;;;;26.87;16.47;;;23.90;99.90;;;;;;6127728;23;20384;-95
2022/08/21 01:05:41;;;;;;;22.03;16.17;;;23.90;99.90;;;;;;6131810;23;20423;-94
2022/08/21 01:08:08;;;;;;;29.03;16.63;;;23.90;99.90;;;;;;6128472;23;20383;-93
2022/08/21 01:10:35;;;;;;;23.00;15.07;;;23.90;99.90;;;;;;6128786;23;20510;-93
2022/08/21 01:13:01;;;;;;;29.57;17.47;;;23.90;99.90;;;;;;6128919;23;20411;-95
2022/08/21 01:15:31;;;;;;;26.80;17.20;;;23.90;99.90;;;;;;6130417;23;20514;-93
2022/08/21 01:17:57;;;;;;;23.83;15.83;;;23.80;99.90;;;;;;6129768;23;20438;-95
2022/08/21 01:20:23;;;;;;;25.90;16.60;;;23.80;99.90;;;;;;6129004;23;20459;-94
2022/08/21 01:22:49;;;;;;;26.37;15.47;;;23.80;99.90;;;;;;6128118;23;20448;-93
2022/08/21 01:25:16;;;;;;;28.33;17.30;;;23.80;99.90;;;;;;6130372;23;20431;-93
2022/08/21 01:27:43;;;;;;;28.87;17.80;;;23.70;99.90;;;;;;6134380;23;20153;-94
2022/08/21 01:30:21;;;;;;;23.73;15.17;;;23.70;99.90;;;;;;6140436;23;20916;-93
2022/08/21 01:32:48;;;;;;;24.63;16.20;;;23.70;99.90;;;;;;6140173;23;20391;-95
2022/08/21 01:35:16;;;;;;;27.93;16.73;;;23.70;99.90;;;;;;6142676;23;20410;-94
2022/08/21 01:37:42;;;;;;;21.40;15.10;;;23.70;99.90;;;;;;6135643;23;20390;-94
2022/08/21 01:40:09;;;;;;;25.87;16.23;;;23.60;99.90;;;;;;6131815;23;20528;-93
2022/08/21 01:42:35;;;;;;;25.07;15.93;;;23.60;99.90;;;;;;6131699;23;20379;-93
2022/08/21 01:45:01;;;;;;;24.10;14.40;;;23.60;99.90;;;;;;6131781;23;20520;-93
2022/08/21 01:47:26;;;;;;;24.57;14.83;;;23.60;99.90;;;;;;6131406;23;20426;-94
2022/08/21 01:49:53;;;;;;;17.70;14.57;;;23.60;99.90;;;;;;6157900;23;20173;-95
2022/08/21 01:52:19;;;;;;;21.93;13.67;;;23.60;99.90;;;;;;6131831;23;20164;-93
2022/08/21 01:54:45;;;;;;;21.00;14.00;;;23.60;99.90;;;;;;6132263;23;20426;-93
2022/08/21 01:57:12;;;;;;;22.73;15.07;;;23.60;99.90;;;;;;6134958;23;20390;-93
2022/08/21 01:59:38;;;;;;;22.10;13.07;;;23.60;99.90;;;;;;6136395;23;20414;-94
2022/08/21 02:02:04;;;;;;;20.70;13.83;;;23.60;99.90;;;;;;6137691;23;20467;-93
2022/08/21 02:04:30;;;;;;;18.27;12.23;;;23.50;99.90;;;;;;6138846;23;20418;-95
2022/08/21 02:06:56;;;;;;;17.53;13.20;;;23.60;99.90;;;;;;6134904;23;20457;-94
2022/08/21 02:09:22;;;;;;;20.53;11.77;;;23.60;99.90;;;;;;6134446;23;20404;-94
2022/08/21 02:11:48;;;;;;;20.60;11.90;;;23.50;99.90;;;;;;6133930;23;20184;-94
2022/08/21 02:14:15;;;;;;;18.30;11.73;;;23.50;99.90;;;;;;6133499;23;20232;-95
2022/08/21 02:16:43;;;;;;;15.70;11.40;;;23.60;99.90;;;;;;6133714;23;20168;-94
2022/08/21 02:19:10;;;;;;;15.33;11.23;;;23.50;99.90;;;;;;6134689;23;20700;-93
2022/08/21 02:21:35;;;;;;;13.57;10.63;;;23.50;99.90;;;;;;6135898;23;20445;-94
2022/08/21 02:24:01;;;;;;;16.40;10.83;;;23.50;99.90;;;;;;6134005;23;20950;-94
2022/08/21 02:26:27;;;;;;;13.40;9.60;;;23.50;99.90;;;;;;6134334;23;20281;-94
2022/08/21 02:28:53;;;;;;;15.97;11.10;;;23.50;99.90;;;;;;6139102;23;20402;-95
2022/08/21 02:31:19;;;;;;;14.53;9.20;;;23.50;99.90;;;;;;6141336;23;20387;-93
2022/08/21 02:33:45;;;;;;;13.00;8.80;;;23.50;99.90;;;;;;6133697;23;20386;-95
2022/08/21 02:36:11;;;;;;;12.00;9.20;;;23.40;99.90;;;;;;6134792;23;20505;-95
2022/08/21 02:38:39;;;;;;;12.70;9.60;;;23.50;99.90;;;;;;6133974;23;20168;-94
2022/08/21 02:41:10;;;;;;;13.30;10.37;;;23.40;99.90;;;;;;6133966;23;20438;-93
2022/08/21 02:43:35;;;;;;;9.80;8.47;;;23.40;99.90;;;;;;6134497;23;20386;-94
2022/08/21 02:46:03;;;;;;;11.17;9.37;;;23.40;99.90;;;;;;6160599;23;20449;-94
2022/08/21 02:48:31;;;;;;;10.70;8.73;;;23.30;99.90;;;;;;6134383;23;20489;-95
2022/08/21 02:51:01;;;;;;;12.13;8.73;;;23.30;99.90;;;;;;6135287;23;20426;-95
2022/08/21 02:53:28;;;;;;;12.87;8.43;;;23.30;99.90;;;;;;6136764;23;20869;-94
2022/08/21 02:55:54;;;;;;;11.57;8.27;;;23.30;99.90;;;;;;6135375;23;20395;-93
2022/08/21 02:58:23;;;;;;;10.00;7.70;;;23.30;99.90;;;;;;6135646;23;20468;-94
2022/08/21 03:00:49;;;;;;;11.20;8.20;;;23.30;99.90;;;;;;6135564;23;20546;-93
2022/08/21 03:03:15;;;;;;;13.07;9.40;;;23.30;99.90;;;;;;6136131;23;20406;-95
2022/08/21 03:05:42;;;;;;;13.33;9.13;;;23.30;99.90;;;;;;6160795;23;20231;-94
2022/08/21 03:08:11;;;;;;;12.30;8.87;;;23.30;99.90;;;;;;6134830;23;20406;-94
2022/08/21 03:10:40;;;;;;;13.10;10.17;;;23.30;99.90;;;;;;6141396;23;20464;-94
2022/08/21 03:13:06;;;;;;;12.20;8.60;;;23.30;99.90;;;;;;6138373;23;20377;-94
2022/08/21 03:15:32;;;;;;;14.40;9.87;;;23.30;99.90;;;;;;6133578;23;20425;-92
2022/08/21 03:17:58;;;;;;;13.57;10.20;;;23.30;99.90;;;;;;6159363;23;20401;-93
2022/08/21 03:20:27;;;;;;;13.90;9.97;;;23.20;99.90;;;;;;6134491;23;20716;-94
2022/08/21 03:22:54;;;;;;;14.27;10.20;;;23.20;99.90;;;;;;6135263;23;20378;-93
2022/08/21 03:25:21;;;;;;;14.50;10.17;;;23.20;99.90;;;;;;6136062;23;20912;-94
2022/08/21 03:27:50;;;;;;;12.17;9.80;;;23.20;99.90;;;;;;6134978;23;20374;-93
2022/08/21 03:30:19;;;;;;;12.53;9.17;;;23.20;99.90;;;;;;6134190;23;20474;-93
2022/08/21 03:32:46;;;;;;;11.00;8.27;;;23.10;99.90;;;;;;6134462;23;20478;-95
2022/08/21 03:35:12;;;;;;;10.07;8.27;;;23.10;99.90;;;;;;6134514;23;20540;-93
2022/08/21 03:37:38;;;;;;;8.83;7.03;;;23.10;99.90;;;;;;6133671;23;20386;-95
2022/08/21 03:40:06;;;;;;;12.70;7.90;;;23.10;99.90;;;;;;6133138;23;20423;-94
2022/08/21 03:42:32;;;;;;;10.43;7.00;;;23.10;99.90;;;;;;6133218;23;20378;-93
2022/08/21 03:44:58;;;;;;;7.93;6.00;;;23.10;99.90;;;;;;6138872;23;20890;-93
2022/08/21 03:47:24;;;;;;;6.60;5.90;;;23.00;99.90;;;;;;6135733;23;20166;-95
2022/08/21 03:49:50;;;;;;;8.87;7.13;;;23.00;99.90;;;;;;6133913;23;20263;-94
2022/08/21 03:52:16;;;;;;;7.13;5.77;;;23.00;99.90;;;;;;6135433;23;20380;-92
2022/08/21 03:54:43;;;;;;;7.00;5.80;;;23.00;99.90;;;;;;6146198;23;20182;-95
2022/08/21 03:57:09;;;;;;;7.60;6.00;;;23.00;99.90;;;;;;6147094;23;20373;-95
2022/08/21 03:59:36;;;;;;;7.27;6.00;;;23.00;99.90;;;;;;6171699;23;20402;-93
2022/08/21 04:02:04;;;;;;;7.03;5.50;;;22.90;99.90;;;;;;6140623;23;20433;-94
2022/08/21 04:04:30;;;;;;;8.00;6.13;;;22.90;99.90;;;;;;6133352;23;20472;-94
2022/08/21 04:06:57;;;;;;;5.63;5.13;;;22.90;99.90;;;;;;6157273;23;20472;-93
2022/08/21 04:09:24;;;;;;;7.60;5.83;;;22.80;99.90;;;;;;6132416;23;20413;-94
2022/08/21 04:11:50;;;;;;;6.50;5.73;;;22.80;99.90;;;;;;6132497;23;20469;-94
2022/08/21 04:14:17;;;;;;;6.53;5.67;;;22.80;99.90;;;;;;6132053;23;20429;-95
2022/08/21 04:16:43;;;;;;;7.83;5.43;;;22.80;99.90;;;;;;6133013;23;20163;-93
2022/08/21 04:19:10;;;;;;;7.03;4.43;;;22.80;99.90;;;;;;6132198;23;20416;-94
2022/08/21 04:21:37;;;;;;;9.00;5.53;;;22.80;99.90;;;;;;6132627;23;20502;-93
2022/08/21 04:24:07;;;;;;;9.17;5.23;;;22.80;99.90;;;;;;6134570;23;20408;-95
2022/08/21 04:26:34;;;;;;;7.03;5.83;;;22.70;99.90;;;;;;6132556;23;20448;-93
2022/08/21 04:29:00;;;;;;;7.17;5.10;;;22.70;99.90;;;;;;6133364;23;20529;-94
2022/08/21 04:31:28;;;;;;;10.03;5.33;;;22.70;99.90;;;;;;6160242;23;20365;-94
2022/08/21 04:33:54;;;;;;;8.00;5.77;;;22.70;99.90;;;;;;6139962;23;20893;-94
2022/08/21 04:36:20;;;;;;;5.40;4.90;;;22.70;99.90;;;;;;6135362;23;20428;-93
2022/08/21 04:38:46;;;;;;;8.17;5.90;;;22.70;99.90;;;;;;6132227;23;20397;-94
2022/08/21 04:41:12;;;;;;;8.70;5.50;;;22.70;99.90;;;;;;6131914;23;20197;-94
2022/08/21 04:43:38;;;;;;;6.23;5.00;;;22.70;99.90;;;;;;6133804;23;20593;-93
2022/08/21 04:46:05;;;;;;;6.43;5.60;;;22.70;99.90;;;;;;6132790;23;20500;-94
2022/08/21 04:48:32;;;;;;;7.03;5.60;;;22.70;99.90;;;;;;6133569;23;20392;-93
2022/08/21 04:51:11;;;;;;;7.53;5.90;;;22.70;99.90;;;;;;6133740;23;20413;-94
2022/08/21 04:54:02;;;;;;;6.17;5.37;;;22.60;99.90;;;;;;6133952;23;20417;-94
2022/08/21 04:56:42;;;;;;;7.30;6.30;;;22.60;99.90;;;;;;6134704;23;20428;-93
2022/08/21 04:59:16;;;;;;;6.90;6.07;;;22.70;99.90;;;;;;6134295;23;20496;-94
2022/08/21 05:01:44;;;;;;;10.20;5.67;;;22.60;99.90;;;;;;6148944;23;20445;-94
2022/08/21 05:04:13;;;;;;;8.03;5.60;;;22.60;99.90;;;;;;6152224;23;20443;-94
2022/08/21 05:06:42;;;;;;;7.47;5.73;;;22.60;99.90;;;;;;6148958;23;20424;-93
2022/08/21 05:09:09;;;;;;;6.67;5.90;;;22.60;99.90;;;;;;6140853;23;20470;-95
2022/08/21 05:11:37;;;;;;;7.80;6.07;;;22.60;99.90;;;;;;6144894;23;20397;-93
2022/08/21 05:14:03;;;;;;;10.10;6.60;;;22.60;99.90;;;;;;6163290;23;20469;-94
2022/08/21 05:16:29;;;;;;;7.80;6.60;;;22.60;99.90;;;;;;6136596;23;20799;-93
2022/08/21 05:18:54;;;;;;;9.70;7.57;;;22.60;99.90;;;;;;6132337;23;20404;-95
2022/08/21 05:21:20;;;;;;;13.23;8.20;;;22.60;99.90;;;;;;6132290;23;20472;-94
2022/08/21 05:23:46;;;;;;;10.40;8.30;;;22.50;99.90;;;;;;6133147;23;20605;-93
2022/08/21 05:26:12;;;;;;;8.47;6.60;;;22.50;99.90;;;;;;6133052;23;20475;-93
2022/08/21 05:28:38;;;;;;;10.07;7.40;;;22.50;99.90;;;;;;6161081;23;20469;-93
2022/08/21 05:31:04;;;;;;;9.33;6.97;;;22.50;99.90;;;;;;6135330;23;20179;-95
2022/08/21 05:33:30;;;;;;;10.87;8.13;;;22.50;99.90;;;;;;6136353;23;20155;-95
2022/08/21 05:35:56;;;;;;;11.30;8.20;;;22.50;99.90;;;;;;6136893;23;20175;-94
2022/08/21 05:38:26;;;;;;;10.10;6.50;;;22.50;99.90;;;;;;6136431;23;20391;-93
2022/08/21 05:40:53;;;;;;;10.07;7.40;;;22.50;99.90;;;;;;6137010;23;20452;-94
2022/08/21 05:43:19;;;;;;;11.43;8.10;;;22.50;99.90;;;;;;6137846;23;20412;-93
2022/08/21 05:45:45;;;;;;;11.30;7.90;;;22.60;99.90;;;;;;6144080;23;20405;-94
2022/08/21 05:48:20;;;;;;;9.40;7.23;;;22.50;99.90;;;;;;6160623;23;20413;-93
2022/08/21 05:50:47;;;;;;;11.50;8.83;;;22.50;99.90;;;;;;6134162;23;20420;-95
2022/08/21 05:53:14;;;;;;;10.60;7.50;;;22.60;99.90;;;;;;6159929;23;20384;-93
2022/08/21 05:55:40;;;;;;;9.60;8.10;;;22.60;99.90;;;;;;6160083;23;20886;-94
2022/08/21 05:58:06;;;;;;;11.27;8.30;;;22.60;99.90;;;;;;6133887;23;20421;-95
2022/08/21 06:00:33;;;;;;;11.53;8.10;;;22.60;99.90;;;;;;6134220;23;20464;-93
2022/08/21 06:03:00;;;;;;;13.03;8.23;;;22.60;99.90;;;;;;6134618;23;20186;-94
2022/08/21 06:05:26;;;;;;;11.27;7.23;;;22.60;99.90;;;;;;6134634;23;20910;-95
2022/08/21 06:07:52;;;;;;;8.63;7.47;;;22.60;99.90;;;;;;6133898;23;20774;-93
2022/08/21 06:10:18;;;;;;;10.77;8.27;;;22.60;99.90;;;;;;6133788;23;20798;-95
2022/08/21 06:12:44;;;;;;;12.50;8.50;;;22.60;99.90;;;;;;6133457;23;20388;-93
2022/08/21 06:15:10;;;;;;;12.13;9.00;;;22.60;99.90;;;;;;6134225;23;20421;-95
2022/08/21 06:17:41;;;;;;;15.00;9.80;;;22.60;99.90;;;;;;6135603;23;20251;-94
2022/08/21 06:20:08;;;;;;;13.83;9.23;;;22.60;99.90;;;;;;6135033;23;20413;-93
2022/08/21 06:22:33;;;;;;;15.57;8.80;;;22.60;99.90;;;;;;6161511;23;20158;-94
2022/08/21 06:24:59;;;;;;;11.43;8.80;;;22.60;99.90;;;;;;6134491;23;20405;-93
2022/08/21 06:27:25;;;;;;;11.93;8.73;;;22.60;99.90;;;;;;6135623;23;20334;-94
2022/08/21 06:29:50;;;;;;;11.07;7.93;;;22.60;99.90;;;;;;6138738;23;20179;-94
2022/08/21 06:32:16;;;;;;;11.87;8.70;;;22.60;99.90;;;;;;6159507;23;20175;-94
2022/08/21 06:34:42;;;;;;;11.97;8.03;;;22.60;99.90;;;;;;6134327;23;20640;-93
2022/08/21 06:37:08;;;;;;;12.73;8.67;;;22.60;99.90;;;;;;6133920;23;20190;-94
2022/08/21 06:39:35;;;;;;;12.17;9.00;;;22.70;99.90;;;;;;6134963;23;20179;-93
2022/08/21 06:42:00;;;;;;;11.50;8.03;;;22.70;99.90;;;;;;6133996;23;20459;-95
2022/08/21 06:44:26;;;;;;;11.00;8.80;;;22.70;99.90;;;;;;6134434;23;20412;-93
2022/08/21 06:46:52;;;;;;;13.40;8.80;;;22.70;99.90;;;;;;6134106;23;20402;-94
2022/08/21 06:49:18;;;;;;;11.67;8.40;;;22.70;99.90;;;;;;6134801;23;20194;-94
2022/08/21 06:51:43;;;;;;;12.13;8.90;;;22.70;99.90;;;;;;6134297;23;20170;-92
2022/08/21 06:54:10;;;;;;;9.70;8.40;;;22.70;99.90;;;;;;6160743;23;20154;-95
2022/08/21 06:56:37;;;;;;;9.50;8.10;;;22.70;99.90;;;;;;6134272;23;20246;-94
2022/08/21 06:59:05;;;;;;;11.60;8.90;;;22.70;99.90;;;;;;6135699;23;20396;-95
2022/08/21 07:01:31;;;;;;;13.37;9.93;;;22.80;99.90;;;;;;6160919;23;20424;-94
2022/08/21 07:03:56;;;;;;;12.70;9.57;;;22.80;99.90;;;;;;6135391;23;20394;-95
2022/08/21 07:06:22;;;;;;;11.47;8.70;;;22.80;99.90;;;;;;6136429;23;20397;-94
2022/08/21 07:08:48;;;;;;;13.67;9.17;;;22.80;99.90;;;;;;6136900;23;20160;-95
2022/08/21 07:11:23;;;;;;;14.60;9.40;;;22.80;99.90;;;;;;6146585;23;20183;-94
2022/08/21 07:13:51;;;;;;;11.67;8.83;;;22.80;99.90;;;;;;6134353;23;20491;-94
2022/08/21 07:16:16;;;;;;;12.00;9.37;;;22.90;99.90;;;;;;6134586;23;20390;-94
2022/08/21 07:18:42;;;;;;;11.57;9.50;;;22.90;99.90;;;;;;6134679;23;20786;-95
2022/08/21 07:21:09;;;;;;;12.87;8.80;;;22.90;99.90;;;;;;6136014;23;20253;-93
2022/08/21 07:23:43;;;;;;;15.70;10.10;;;22.90;99.90;;;;;;6134820;23;20155;-93
2022/08/21 07:26:10;;;;;;;18.10;9.50;;;22.90;99.90;;;;;;6134850;23;20992;-94
2022/08/21 07:28:36;;;;;;;13.27;8.50;;;22.90;99.90;;;;;;6160379;23;20392;-93
2022/08/21 07:31:03;;;;;;;10.87;8.60;;;23.00;99.90;;;;;;6135099;23;20536;-93
2022/08/21 07:33:32;;;;;;;14.33;9.00;;;23.00;99.90;;;;;;6160664;23;20365;-94
2022/08/21 07:35:57;;;;;;;12.80;8.77;;;23.00;99.90;;;;;;6134261;23;20409;-94
2022/08/21 07:38:25;;;;;;;13.63;9.47;;;23.00;99.90;;;;;;6134823;23;20775;-93
2022/08/21 07:40:54;;;;;;;13.20;9.13;;;23.00;99.90;;;;;;6134230;23;20475;-96
2022/08/21 07:43:21;;;;;;;11.17;9.50;;;23.10;99.90;;;;;;6134339;23;20374;-94
2022/08/21 07:45:49;;;;;;;11.10;9.50;;;23.10;99.90;;;;;;6142641;23;20413;-93
2022/08/21 07:48:15;;;;;;;12.97;9.60;;;23.10;99.90;;;;;;6158329;23;20369;-93
2022/08/21 07:50:42;;;;;;;12.00;8.77;;;23.10;99.90;;;;;;6133258;23;20891;-95
2022/08/21 07:53:08;;;;;;;16.33;10.57;;;23.10;99.90;;;;;;6138190;23;20410;-95
2022/08/21 07:55:34;;;;;;;13.77;9.10;;;23.10;99.90;;;;;;6138354;23;20902;-93
2022/08/21 07:58:00;;;;;;;13.23;9.57;;;23.20;99.90;;;;;;6138558;23;20405;-92
2022/08/21 08:00:28;;;;;;;13.70;10.03;;;23.20;99.90;;;;;;6134396;23;20429;-94
2022/08/21 08:02:55;;;;;;;12.93;9.60;;;23.20;99.90;;;;;;6134151;23;20381;-93
2022/08/21 08:05:26;;;;;;;11.77;9.63;;;23.20;99.90;;;;;;6133303;23;20414;-93
2022/08/21 08:07:52;;;;;;;12.43;9.70;;;23.20;99.90;;;;;;6133323;23;20833;-95
2022/08/21 08:10:18;;;;;;;13.07;9.20;;;23.20;99.90;;;;;;6159314;23;20488;-93
2022/08/21 08:12:45;;;;;;;10.90;8.57;;;23.30;99.90;;;;;;6134224;23;20164;-94
2022/08/21 08:15:22;;;;;;;14.13;10.30;;;23.30;99.90;;;;;;6133946;23;20416;-95
2022/08/21 08:17:48;;;;;;;14.60;10.20;;;23.30;99.90;;;;;;6134298;23;20493;-95
2022/08/21 08:20:16;;;;;;;16.03;9.50;;;23.30;99.90;;;;;;6134488;23;20437;-94
2022/08/21 08:22:42;;;;;;;13.67;10.17;;;23.30;99.90;;;;;;6133691;23;20172;-95
2022/08/21 08:25:09;;;;;;;12.47;10.63;;;23.30;99.90;;;;;;6134279;23;20422;-93
2022/08/21 08:27:35;;;;;;;15.47;11.70;;;23.30;99.90;;;;;;6136817;23;20378;-95
2022/08/21 08:30:02;;;;;;;14.00;10.27;;;23.40;99.90;;;;;;6141642;23;20441;-94
2022/08/21 08:32:28;;;;;;;15.27;11.90;;;23.40;99.90;;;;;;6134994;23;20405;-94
2022/08/21 08:34:53;;;;;;;16.93;11.87;;;23.40;99.90;;;;;;6146059;23;20418;-94
2022/08/21 08:37:20;;;;;;;17.37;10.87;;;23.40;99.90;;;;;;6135309;23;20170;-94
2022/08/21 08:39:46;;;;;;;12.47;9.63;;;23.40;99.90;;;;;;6132209;23;20176;-94
2022/08/21 08:42:31;;;;;;;16.60;11.00;;;23.40;99.90;;;;;;6158769;23;20425;-95
2022/08/21 08:45:16;;;;;;;12.97;11.17;;;23.40;99.90;;;;;;6135475;23;20207;-94
2022/08/21 08:47:59;;;;;;;14.50;10.57;;;23.40;99.90;;;;;;6132868;23;20386;-94
2022/08/21 08:50:44;;;;;;;13.40;11.60;;;23.40;99.90;;;;;;6134195;23;20426;-93
2022/08/21 08:53:33;;;;;;;13.40;11.40;;;23.40;99.90;;;;;;6133798;23;20422;-94
2022/08/21 08:56:02;;;;;;;15.63;11.10;;;23.40;99.90;;;;;;6133072;23;20779;-94
2022/08/21 08:58:39;;;;;;;13.90;11.37;;;23.40;99.90;;;;;;6160277;23;20375;-94
2022/08/21 09:01:13;;;;;;;14.23;11.00;;;23.40;99.90;;;;;;6134242;23;20445;-95
2022/08/21 09:03:39;;;;;;;18.00;12.10;;;23.40;99.90;;;;;;6134543;23;20465;-93
2022/08/21 09:06:44;;;;;;;18.37;13.90;;;23.40;99.90;;;;;;6143781;23;20406;-94
2022/08/21 09:09:33;;;;;;;18.57;12.30;;;23.40;99.90;;;;;;6074106;23;20413;-94
2022/08/21 09:12:05;;;;;;;14.63;12.00;;;23.40;99.90;;;;;;6132068;23;20386;-94
2022/08/21 09:14:52;;;;;;;18.57;12.00;;;23.40;99.90;;;;;;6132358;23;20896;-94
2022/08/21 09:17:24;;;;;;;14.13;11.77;;;23.40;99.90;;;;;;6132352;23;20394;-94
2022/08/21 09:20:23;;;;;;;17.03;12.47;;;23.40;99.90;;;;;;6133329;23;20447;-94
2022/08/21 09:23:07;;;;;;;16.20;11.47;;;23.40;99.90;;;;;;6132937;23;20403;-93
2022/08/21 09:25:51;;;;;;;17.90;13.50;;;23.40;99.90;;;;;;6132890;23;20449;-95
2022/08/21 09:28:17;;;;;;;18.53;13.10;;;23.40;99.90;;;;;;6133370;23;20422;-94
2022/08/21 09:30:43;;;;;;;16.00;11.97;;;23.40;99.90;;;;;;6132795;23;20414;-93
2022/08/21 09:33:12;;;;;;;19.17;13.03;;;23.30;99.90;;;;;;6133697;23;20157;-94
2022/08/21 09:35:57;;;;;;;17.83;12.63;;;23.40;99.90;;;;;;6133604;23;20564;-94
2022/08/21 09:38:33;;;;;;;17.93;13.20;;;23.40;99.90;;;;;;6137288;23;20390;-93
2022/08/21 09:41:03;;;;;;;15.93;12.17;;;23.40;99.90;;;;;;6135092;23;20946;-94
2022/08/21 09:43:31;;;;;;;17.57;13.33;;;23.40;99.90;;;;;;6134130;23;20382;-93
2022/08/21 09:46:09;;;;;;;16.53;11.70;;;23.40;99.90;;;;;;6142704;23;20535;-93
2022/08/21 09:48:48;;;;;;;21.10;14.70;;;23.40;99.90;;;;;;6133108;23;20419;-93
2022/08/21 09:51:21;;;;;;;19.97;13.93;;;23.40;99.90;;;;;;6132516;23;20422;-93
2022/08/21 09:54:05;;;;;;;17.53;13.83;;;23.40;99.90;;;;;;6132464;23;20399;-92
2022/08/21 09:59:31;;;;;;;17.33;13.20;;;23.40;99.90;;;;;;6158457;23;20417;-94
2022/08/21 10:02:00;;;;;;;18.63;14.53;;;23.30;99.90;;;;;;6132398;23;20488;-93
2022/08/21 10:04:35;;;;;;;17.03;12.20;;;23.30;99.90;;;;;;6132316;23;20441;-93
2022/08/21 10:07:13;;;;;;;17.07;13.73;;;23.30;99.90;;;;;;6158574;23;20467;-94
2022/08/21 10:09:39;;;;;;;17.23;13.20;;;23.30;99.90;;;;;;6132773;23;20883;-93
2022/08/21 10:12:10;;;;;;;16.67;13.10;;;23.30;99.90;;;;;;6132610;23;20500;-94
2022/08/21 10:15:10;;;;;;;17.60;13.73;;;23.40;99.90;;;;;;6133017;23;20410;-94
2022/08/21 10:18:23;;;;;;;17.83;14.33;;;23.30;99.90;;;;;;6159405;23;20376;-95
2022/08/21 10:21:07;;;;;;;17.33;13.63;;;23.30;99.90;;;;;;6051034;23;20476;-93
2022/08/21 10:23:54;;;;;;;16.37;13.03;;;23.30;99.90;;;;;;6139675;23;20488;-94
2022/08/21 10:26:46;;;;;;;17.97;13.37;;;23.30;99.90;;;;;;6161203;23;20481;-94
2022/08/21 10:29:22;;;;;;;14.17;11.87;;;23.30;99.90;;;;;;6136774;23;20470;-93
2022/08/21 10:31:57;;;;;;;15.90;12.27;;;23.30;99.90;;;;;;6135646;23;20410;-93
2022/08/21 10:34:37;;;;;;;18.73;13.93;;;23.30;99.90;;;;;;6142765;23;20434;-94
2022/08/21 10:37:11;;;;;;;21.70;14.60;;;23.30;99.90;;;;;;6133526;23;20708;-93
2022/08/21 10:39:50;;;;;;;16.53;13.47;;;23.30;99.90;;;;;;6133450;23;20432;-93
2022/08/21 10:42:47;;;;;;;16.87;13.40;;;23.30;99.90;;;;;;6133185;23;20465;-94
2022/08/21 10:45:32;;;;;;;20.70;14.00;;;23.30;99.90;;;;;;6117570;23;20455;-94
2022/08/21 10:48:05;;;;;;;18.90;12.77;;;23.30;99.90;;;;;;6133210;23;20383;-93
2022/08/21 10:50:36;;;;;;;17.30;13.20;;;23.30;99.90;;;;;;6133622;23;20748;-94
2022/08/21 10:53:10;;;;;;;16.47;12.60;;;23.30;99.90;;;;;;6134076;23;20438;-95
2022/08/21 10:55:52;;;;;;;17.87;13.13;;;23.30;99.90;;;;;;6136692;23;20792;-94
2022/08/21 10:58:36;;;;;;;17.20;13.57;;;23.40;99.90;;;;;;6135299;23;20414;-94
2022/08/21 11:01:14;;;;;;;16.60;13.63;;;23.40;99.90;;;;;;6135461;23;20453;-93
2022/08/21 11:03:53;;;;;;;14.87;12.20;;;23.40;99.90;;;;;;6135306;23;20386;-94
2022/08/21 11:06:25;;;;;;;18.17;12.87;;;23.40;99.90;;;;;;6134876;23;20385;-94
2022/08/21 11:08:59;;;;;;;12.90;9.70;;;23.40;99.90;;;;;;6135412;23;20427;-94
2022/08/21 11:11:40;;;;;;;15.67;12.10;;;23.40;99.90;;;;;;6136206;23;20382;-95
2022/08/21 11:14:26;;;;;;;14.17;11.13;;;23.40;99.90;;;;;;6134937;23;20390;-93
2022/08/21 11:17:12;;;;;;;16.57;10.90;;;23.40;99.90;;;;;;6161013;23;20449;-93
2022/08/21 11:20:03;;;;;;;17.40;11.00;;;23.40;99.90;;;;;;6134199;23;20447;-94
2022/08/21 11:22:40;;;;;;;13.17;10.73;;;23.30;99.90;;;;;;6134155;23;20435;-93
2022/08/21 11:25:14;;;;;;;14.90;11.40;;;23.30;99.90;;;;;;6136173;23;20815;-93
2022/08/21 11:27:49;;;;;;;14.50;10.93;;;23.30;99.90;;;;;;6137662;23;20860;-94
2022/08/21 11:30:15;;;;;;;14.93;10.80;;;23.30;99.90;;;;;;6135362;23;20417;-93
2022/08/21 11:32:54;;;;;;;17.07;11.27;;;23.30;99.90;;;;;;6142338;23;20434;-93
2022/08/21 11:35:49;;;;;;;15.67;12.03;;;23.30;99.90;;;;;;6131949;23;20761;-94
2022/08/21 11:38:24;;;;;;;16.80;12.43;;;23.30;99.90;;;;;;6079479;23;20476;-94
2022/08/21 11:41:01;;;;;;;15.10;11.90;;;23.40;99.90;;;;;;6132665;23;20496;-92
2022/08/21 11:43:35;;;;;;;16.77;12.30;;;23.40;99.90;;;;;;6131748;23;20387;-93
2022/08/21 11:46:29;;;;;;;15.23;11.00;;;23.40;99.90;;;;;;6131212;23;20406;-93
2022/08/21 11:48:58;;;;;;;19.03;12.10;;;23.40;99.90;;;;;;6133315;23;20485;-93
2022/08/21 11:52:07;;;;;;;18.43;13.53;;;23.40;99.90;;;;;;6159800;23;20430;-93
2022/08/21 11:54:46;;;;;;;17.13;12.33;;;23.40;99.90;;;;;;6113680;23;20503;-93
2022/08/21 11:57:12;;;;;;;17.63;12.40;;;23.40;99.90;;;;;;6134136;23;20394;-95
2022/08/21 11:59:46;;;;;;;18.10;12.53;;;23.40;99.90;;;;;;6162264;23;20449;-93
2022/08/21 12:02:22;;;;;;;17.20;13.03;;;23.40;99.90;;;;;;6138850;23;20194;-92
2022/08/21 12:04:53;;;;;;;17.13;12.50;;;23.40;99.90;;;;;;6135152;23;20962;-94
2022/08/21 12:07:41;;;;;;;18.30;13.23;;;23.40;99.90;;;;;;6138819;23;20384;-93
2022/08/21 12:10:20;;;;;;;17.20;12.40;;;23.40;99.90;;;;;;6132599;23;20481;-94
2022/08/21 12:12:47;;;;;;;13.80;11.20;;;23.40;99.90;;;;;;6132324;23;20434;-93
2022/08/21 12:15:25;;;;;;;13.57;11.07;;;23.40;99.90;;;;;;6133210;23;20508;-93
2022/08/21 12:17:59;;;;;;;15.07;11.43;;;23.40;99.90;;;;;;6133121;23;20773;-95
2022/08/21 12:20:55;;;;;;;20.53;14.73;;;23.40;99.90;;;;;;6133828;23;20419;-93
2022/08/21 12:24:09;;;;;;;19.97;13.27;;;23.40;99.90;;;;;;6132954;23;20524;-95
2022/08/21 12:26:49;;;;;;;18.53;12.60;;;23.50;99.90;;;;;;6128161;23;20489;-94
2022/08/21 12:29:28;;;;;;;18.10;12.67;;;23.50;99.90;;;;;;6135729;23;20423;-95
2022/08/21 12:32:05;;;;;;;20.87;14.93;;;23.50;99.90;;;;;;6135330;23;20405;-94
2022/08/21 12:34:47;;;;;;;21.07;13.10;;;23.40;99.90;;;;;;6133684;23;20731;-94
2022/08/21 12:37:38;;;;;;;22.80;13.70;;;23.50;99.90;;;;;;6134767;23;20391;-94
2022/08/21 12:40:10;;;;;;;15.73;11.57;;;23.50;99.90;;;;;;6133691;23;20429;-94
2022/08/21 12:42:46;;;;;;;15.13;11.83;;;23.40;99.90;;;;;;6142319;23;20410;-94
2022/08/21 12:45:23;;;;;;;14.93;11.27;;;23.40;99.90;;;;;;6133907;23;20908;-92
2022/08/21 12:48:17;;;;;;;14.90;11.80;;;23.40;99.90;;;;;;6132772;23;20409;-95
2022/08/21 12:51:06;;;;;;;17.43;13.17;;;23.40;99.90;;;;;;6088155;23;20426;-94
2022/08/21 12:53:50;;;;;;;15.27;11.67;;;23.40;99.90;;;;;;6160774;23;20358;-94
2022/08/21 12:56:28;;;;;;;14.33;10.70;;;23.40;99.90;;;;;;6133078;23;20473;-94